Time;durP1;ratioP1;P1;durP2;ratioP2;P2;SDS_P1;SDS_P2;PMS_P1;PMS_P2;Temp;Humidity;BMP_temperature;BMP_pressure;BME280_temperature;BME280_humidity;BME280_pressure;Samples;Min_cycle;Max_cycle;Signal;HPM_P1;HPM_P2
2024/04/02 00:00:46;;;;;;;1.42;0.55;;;11.30;78.70;;;;;;4990148;28;20026;-61
2024/04/02 00:03:13;;;;;;;0.60;0.40;;;11.30;78.80;;;;;;4991013;28;20045;-62
2024/04/02 00:05:40;;;;;;;0.40;0.38;;;11.30;78.80;;;;;;4972522;28;20038;-61
2024/04/02 00:08:07;;;;;;;0.47;0.40;;;11.30;78.90;;;;;;4991742;28;20030;-61
2024/04/02 00:10:35;;;;;;;0.40;0.40;;;11.30;78.80;;;;;;4991292;28;20073;-61
2024/04/02 00:13:02;;;;;;;0.82;0.60;;;11.30;78.80;;;;;;4990788;28;20038;-62
2024/04/02 00:15:28;;;;;;;0.40;0.40;;;11.30;78.80;;;;;;4992344;28;20030;-67
2024/04/02 00:17:54;;;;;;;0.88;0.82;;;11.20;78.80;;;;;;4991752;28;20396;-66
2024/04/02 00:20:22;;;;;;;0.45;0.45;;;11.20;78.90;;;;;;4989325;28;20172;-67
2024/04/02 00:22:48;;;;;;;1.52;0.60;;;11.20;78.90;;;;;;4983178;28;20027;-67
2024/04/02 00:25:14;;;;;;;0.43;0.40;;;11.20;78.90;;;;;;4973908;28;20396;-62
2024/04/02 00:27:40;;;;;;;0.93;0.70;;;11.20;78.90;;;;;;4990064;28;20042;-62
2024/04/02 00:30:07;;;;;;;1.30;0.45;;;11.20;78.90;;;;;;4986912;28;20093;-62
2024/04/02 00:32:33;;;;;;;0.75;0.75;;;11.20;78.90;;;;;;4987696;28;20640;-62
2024/04/02 00:34:59;;;;;;;2.03;0.50;;;11.20;78.90;;;;;;4988352;28;20026;-66
2024/04/02 00:37:25;;;;;;;0.50;0.50;;;11.20;78.80;;;;;;4988428;28;20053;-66
2024/04/02 00:39:51;;;;;;;0.95;0.60;;;11.20;78.80;;;;;;4989885;28;20038;-67
2024/04/02 00:42:17;;;;;;;1.63;0.63;;;11.20;78.90;;;;;;4987225;28;20028;-67
2024/04/02 00:44:43;;;;;;;0.55;0.40;;;11.20;78.80;;;;;;4989764;28;20034;-67
2024/04/02 00:47:10;;;;;;;0.32;0.30;;;11.10;78.80;;;;;;4987455;28;20494;-67
2024/04/02 00:49:37;;;;;;;0.55;0.47;;;11.10;78.80;;;;;;4987095;28;20030;-66
2024/04/02 00:52:04;;;;;;;0.30;0.30;;;11.10;78.80;;;;;;4987699;28;20030;-67
2024/04/02 00:54:31;;;;;;;0.43;0.22;;;11.20;78.80;;;;;;4988602;28;20042;-67
2024/04/02 00:56:57;;;;;;;0.85;0.30;;;11.10;78.70;;;;;;4990098;28;20404;-62
2024/04/02 00:59:24;;;;;;;2.28;0.38;;;11.10;78.70;;;;;;4985395;28;20389;-62
2024/04/02 01:01:51;;;;;;;1.38;0.70;;;11.10;78.70;;;;;;4987846;28;20037;-61
2024/04/02 01:04:20;;;;;;;0.35;0.25;;;11.10;78.70;;;;;;4989595;28;20041;-66
2024/04/02 01:06:47;;;;;;;0.20;0.20;;;11.10;78.70;;;;;;4973092;28;20476;-66
2024/04/02 01:09:17;;;;;;;1.45;0.40;;;11.10;78.70;;;;;;4988132;28;20041;-66
2024/04/02 01:11:52;;;;;;;0.60;0.40;;;11.00;78.70;;;;;;5094338;27;20392;-65
2024/04/02 01:14:18;;;;;;;0.90;0.50;;;11.00;78.80;;;;;;5096833;28;20089;-65
2024/04/02 01:16:45;;;;;;;0.30;0.30;;;11.00;78.80;;;;;;5098403;28;20028;-65
2024/04/02 01:19:11;;;;;;;0.47;0.30;;;11.00;78.70;;;;;;5089840;28;20496;-66
2024/04/02 01:21:38;;;;;;;1.60;0.57;;;11.00;78.70;;;;;;5094107;28;20378;-66
2024/04/02 01:24:04;;;;;;;0.60;0.60;;;11.10;78.70;;;;;;5094696;28;20501;-66
2024/04/02 01:26:30;;;;;;;1.67;0.20;;;11.00;78.60;;;;;;5093412;28;20115;-64
2024/04/02 01:28:58;;;;;;;1.58;0.80;;;11.00;78.60;;;;;;5093904;28;20122;-65
2024/04/02 01:31:30;;;;;;;0.57;0.57;;;11.00;78.70;;;;;;5094321;28;20475;-65
2024/04/02 01:33:56;;;;;;;0.50;0.50;;;11.00;78.80;;;;;;5096995;28;20026;-66
2024/04/02 01:36:22;;;;;;;1.13;0.52;;;11.00;78.80;;;;;;5092724;28;20024;-66
2024/04/02 01:38:48;;;;;;;0.70;0.60;;;10.90;78.90;;;;;;5097054;28;20032;-65
2024/04/02 01:41:14;;;;;;;0.68;0.35;;;10.90;79.10;;;;;;5094712;28;20024;-65
2024/04/02 01:43:40;;;;;;;0.45;0.30;;;10.90;79.20;;;;;;5094760;28;20387;-65
2024/04/02 01:46:06;;;;;;;0.30;0.30;;;10.90;79.10;;;;;;5087674;28;20040;-66
2024/04/02 01:48:32;;;;;;;1.23;0.93;;;10.90;79.10;;;;;;5095519;28;20479;-65
2024/04/02 01:50:58;;;;;;;0.93;0.50;;;10.90;79.10;;;;;;5095891;28;20043;-61
2024/04/02 01:53:24;;;;;;;1.00;0.60;;;10.80;79.20;;;;;;5092204;28;20445;-67
2024/04/02 01:55:50;;;;;;;1.27;0.63;;;10.80;79.20;;;;;;5090102;28;20131;-61
2024/04/02 01:58:16;;;;;;;0.28;0.28;;;10.80;79.30;;;;;;5092519;28;20450;-64
2024/04/02 02:00:42;;;;;;;0.88;0.80;;;10.80;79.40;;;;;;5097122;28;20039;-61
2024/04/02 02:03:08;;;;;;;0.75;0.50;;;10.80;79.40;;;;;;5095526;28;20024;-66
2024/04/02 02:05:34;;;;;;;0.47;0.47;;;10.70;79.30;;;;;;5095615;28;20239;-65
2024/04/02 02:08:00;;;;;;;0.30;0.30;;;10.80;79.30;;;;;;5095546;28;20059;-66
2024/04/02 02:10:25;;;;;;;0.40;0.40;;;10.70;79.30;;;;;;5091750;28;20506;-66
2024/04/02 02:12:51;;;;;;;0.43;0.43;;;10.70;79.30;;;;;;5094564;28;20039;-65
2024/04/02 02:15:18;;;;;;;0.38;0.30;;;10.80;79.30;;;;;;5092831;28;20025;-65
2024/04/02 02:17:50;;;;;;;0.40;0.30;;;10.80;79.30;;;;;;5096826;28;20025;-65
2024/04/02 02:20:16;;;;;;;;;;;10.70;79.30;;;;;;5091636;28;20478;-61
2024/04/02 02:22:41;;;;;;;0.88;0.45;;;10.70;79.40;;;;;;5082657;28;19919;-61
2024/04/02 02:25:07;;;;;;;0.60;0.30;;;10.60;79.50;;;;;;5082383;28;20027;-65
2024/04/02 02:27:33;;;;;;;0.40;0.40;;;10.60;79.50;;;;;;5079734;28;20475;-62
2024/04/02 02:29:59;;;;;;;0.80;0.30;;;10.60;79.60;;;;;;5080613;28;20059;-65
2024/04/02 02:32:25;;;;;;;0.82;0.40;;;10.60;79.70;;;;;;5082954;28;20105;-61
2024/04/02 02:34:50;;;;;;;1.00;0.20;;;10.60;79.60;;;;;;5082641;28;20017;-61
2024/04/02 02:37:16;;;;;;;1.80;0.40;;;10.60;79.60;;;;;;5080777;28;20479;-61
2024/04/02 02:39:42;;;;;;;1.00;0.32;;;10.60;79.60;;;;;;5078026;28;20024;-61
2024/04/02 02:42:08;;;;;;;1.05;0.80;;;10.60;79.70;;;;;;5075901;28;20104;-61
2024/04/02 02:44:34;;;;;;;1.60;1.02;;;10.60;79.80;;;;;;5075813;28;20048;-61
2024/04/02 02:46:59;;;;;;;0.70;0.70;;;10.50;79.90;;;;;;5080815;28;20092;-61
2024/04/02 02:49:26;;;;;;;2.78;0.50;;;10.50;80.00;;;;;;5077538;28;20095;-61
2024/04/02 02:51:52;;;;;;;3.92;0.70;;;10.40;80.00;;;;;;5077598;28;20052;-61
2024/04/02 02:54:17;;;;;;;1.00;0.30;;;10.40;80.10;;;;;;5082656;28;20052;-61
2024/04/02 02:56:43;;;;;;;1.10;0.52;;;10.40;80.20;;;;;;5074312;28;20098;-61
2024/04/02 02:59:09;;;;;;;1.38;0.88;;;10.40;80.30;;;;;;5074302;28;20032;-61
2024/04/02 03:01:35;;;;;;;0.73;0.50;;;10.40;80.30;;;;;;5078992;28;20501;-61
2024/04/02 03:04:01;;;;;;;3.22;0.70;;;10.40;80.30;;;;;;5078639;28;20032;-61
2024/04/02 03:06:26;;;;;;;0.95;0.70;;;10.40;80.50;;;;;;5080700;28;20549;-61
2024/04/02 03:08:52;;;;;;;0.25;0.25;;;10.40;80.50;;;;;;5076841;28;20387;-66
2024/04/02 03:11:18;;;;;;;0.63;0.50;;;10.40;80.40;;;;;;5081423;28;20049;-61
2024/04/02 03:13:44;;;;;;;1.63;0.22;;;10.40;80.50;;;;;;5077167;28;20037;-61
2024/04/02 03:16:09;;;;;;;0.93;0.60;;;10.40;80.50;;;;;;5079055;28;20099;-61
2024/04/02 03:18:35;;;;;;;0.55;0.40;;;10.40;80.50;;;;;;5078012;28;20020;-61
2024/04/02 03:21:01;;;;;;;0.30;0.30;;;10.40;80.60;;;;;;5073591;28;20115;-61
2024/04/02 03:23:28;;;;;;;0.73;0.73;;;10.40;80.60;;;;;;5081118;28;20047;-66
2024/04/02 03:25:54;;;;;;;2.67;0.70;;;10.30;80.70;;;;;;5075625;28;20027;-65
2024/04/02 03:28:20;;;;;;;1.23;0.52;;;10.30;80.80;;;;;;5080619;28;20028;-66
2024/04/02 03:30:47;;;;;;;1.55;1.45;;;10.30;81.40;;;;;;5071890;28;20040;-66
2024/04/02 03:33:14;;;;;;;0.40;0.40;;;10.30;80.80;;;;;;5079168;28;20022;-65
2024/04/02 03:35:40;;;;;;;0.98;0.68;;;10.30;80.80;;;;;;5077306;28;20044;-66
2024/04/02 03:38:06;;;;;;;0.52;0.47;;;10.30;80.90;;;;;;5078900;28;20036;-66
2024/04/02 03:40:41;;;;;;;0.60;0.60;;;10.30;80.90;;;;;;5071053;28;20064;-66
2024/04/02 03:43:07;;;;;;;1.50;0.85;;;10.40;80.90;;;;;;5076170;28;20020;-65
2024/04/02 03:45:42;;;;;;;0.88;0.70;;;10.30;80.80;;;;;;5080544;28;20134;-66
2024/04/02 03:48:09;;;;;;;1.48;0.60;;;10.30;80.90;;;;;;5075853;28;20450;-65
2024/04/02 03:50:38;;;;;;;1.00;0.55;;;10.30;80.80;;;;;;5075692;28;20352;-65
2024/04/02 03:53:07;;;;;;;0.32;0.32;;;10.30;80.90;;;;;;5077780;28;20143;-65
2024/04/02 03:55:37;;;;;;;0.70;0.50;;;10.30;81.00;;;;;;5080609;28;20430;-66
2024/04/02 03:58:03;;;;;;;0.90;0.47;;;10.20;81.00;;;;;;5078480;28;20107;-66
2024/04/02 04:00:30;;;;;;;1.77;0.40;;;10.20;81.10;;;;;;5077603;28;20027;-66
2024/04/02 04:02:56;;;;;;;0.57;0.57;;;10.20;81.00;;;;;;5075675;28;20049;-65
2024/04/02 04:05:23;;;;;;;0.55;0.47;;;10.30;81.10;;;;;;5079275;28;20491;-65
2024/04/02 04:07:50;;;;;;;2.20;0.32;;;10.20;81.10;;;;;;5079448;28;20029;-65
2024/04/02 04:10:17;;;;;;;0.68;0.40;;;10.20;81.20;;;;;;5073177;28;20537;-64
2024/04/02 04:12:43;;;;;;;1.17;0.65;;;10.20;81.30;;;;;;5075868;28;20052;-65
2024/04/02 04:15:09;;;;;;;0.45;0.45;;;10.20;81.30;;;;;;5078705;28;20099;-65
2024/04/02 04:17:35;;;;;;;0.75;0.43;;;10.20;81.50;;;;;;5080658;28;20593;-66
2024/04/02 04:20:01;;;;;;;1.88;0.55;;;10.20;81.60;;;;;;5076950;28;20055;-65
2024/04/02 04:22:27;;;;;;;0.40;0.30;;;10.20;81.60;;;;;;5065608;28;20112;-66
2024/04/02 04:25:01;;;;;;;0.40;0.38;;;10.20;81.60;;;;;;5067793;28;20119;-66
2024/04/02 04:27:36;;;;;;;2.22;0.73;;;10.20;81.60;;;;;;5053899;28;20435;-61
2024/04/02 04:30:05;;;;;;;2.00;0.70;;;10.20;82.10;;;;;;5070850;28;20437;-61
2024/04/02 04:32:37;;;;;;;0.95;0.50;;;10.10;81.50;;;;;;5063454;28;20020;-62
2024/04/02 04:35:04;;;;;;;0.45;0.30;;;10.10;81.60;;;;;;5062825;28;20036;-62
2024/04/02 04:37:32;;;;;;;0.63;0.40;;;10.10;81.60;;;;;;5063302;28;20052;-61
2024/04/02 04:39:59;;;;;;;0.95;0.60;;;10.10;81.70;;;;;;5076422;28;20033;-61
2024/04/02 04:42:25;;;;;;;0.43;0.30;;;10.10;81.80;;;;;;5075242;28;20055;-61
2024/04/02 04:44:51;;;;;;;0.68;0.65;;;10.10;81.80;;;;;;5065248;28;20036;-61
2024/04/02 04:47:17;;;;;;;0.80;0.50;;;10.10;81.90;;;;;;5068846;28;20037;-62
2024/04/02 04:49:43;;;;;;;1.13;0.30;;;10.00;81.90;;;;;;5076765;28;20278;-61
2024/04/02 04:52:09;;;;;;;1.60;0.55;;;10.10;81.80;;;;;;5075179;28;20024;-65
2024/04/02 04:54:35;;;;;;;1.08;0.55;;;10.10;81.80;;;;;;5072288;28;20108;-61
2024/04/02 04:57:01;;;;;;;1.55;0.60;;;10.20;81.90;;;;;;5065206;28;20075;-61
2024/04/02 04:59:27;;;;;;;0.75;0.47;;;10.20;81.90;;;;;;5054726;28;20025;-61
2024/04/02 05:01:53;;;;;;;0.85;0.60;;;10.20;81.90;;;;;;5059302;28;20035;-61
2024/04/02 05:04:18;;;;;;;1.77;1.15;;;10.20;82.00;;;;;;5059379;28;20501;-66
2024/04/02 05:06:44;;;;;;;1.05;0.57;;;10.20;82.00;;;;;;5076683;28;20036;-65
2024/04/02 05:09:13;;;;;;;0.70;0.68;;;10.30;81.90;;;;;;5075900;28;20063;-65
2024/04/02 05:11:39;;;;;;;0.70;0.40;;;10.30;81.80;;;;;;5069501;28;20045;-66
2024/04/02 05:14:05;;;;;;;0.47;0.47;;;10.30;81.70;;;;;;5070237;28;20037;-65
2024/04/02 05:16:33;;;;;;;1.55;0.40;;;10.30;81.90;;;;;;5063206;28;20031;-66
2024/04/02 05:18:59;;;;;;;1.45;0.52;;;10.30;82.00;;;;;;5068965;28;20028;-65
2024/04/02 05:21:25;;;;;;;0.60;0.60;;;10.30;81.90;;;;;;5062090;28;20395;-62
2024/04/02 05:23:50;;;;;;;0.40;0.40;;;10.30;81.90;;;;;;5061283;28;20073;-62
2024/04/02 05:26:17;;;;;;;1.55;0.52;;;10.40;82.00;;;;;;5068568;28;20029;-61
2024/04/02 05:28:43;;;;;;;2.47;0.90;;;10.40;82.00;;;;;;5071273;28;20067;-62
2024/04/02 05:31:09;;;;;;;2.33;0.68;;;10.40;81.90;;;;;;5073195;28;20064;-62
2024/04/02 05:33:35;;;;;;;0.40;0.40;;;10.40;82.00;;;;;;5066420;28;20428;-65
2024/04/02 05:36:01;;;;;;;0.90;0.60;;;10.40;81.90;;;;;;5068200;28;20063;-65
2024/04/02 05:38:27;;;;;;;2.92;0.50;;;10.50;82.00;;;;;;5064673;28;20028;-62
2024/04/02 05:40:53;;;;;;;1.85;0.80;;;10.50;81.90;;;;;;5063224;28;20029;-62
2024/04/02 05:43:18;;;;;;;0.47;0.47;;;10.50;81.80;;;;;;5065593;28;20041;-62
2024/04/02 05:45:44;;;;;;;2.70;0.55;;;10.50;81.80;;;;;;5061733;28;20103;-62
2024/04/02 05:48:09;;;;;;;6.47;0.80;;;10.60;81.80;;;;;;5065418;28;20436;-65
2024/04/02 05:50:35;;;;;;;0.95;0.75;;;10.60;81.70;;;;;;5061342;28;20044;-62
2024/04/02 05:53:01;;;;;;;0.63;0.63;;;10.60;81.70;;;;;;5071187;28;20104;-62
2024/04/02 05:55:27;;;;;;;2.92;1.15;;;10.70;81.70;;;;;;5065131;28;20033;-62
2024/04/02 05:57:55;;;;;;;1.02;0.60;;;10.70;81.80;;;;;;5066243;28;20029;-62
2024/04/02 06:00:21;;;;;;;1.08;0.90;;;10.70;81.70;;;;;;5063852;28;20020;-65
2024/04/02 06:02:46;;;;;;;0.50;0.45;;;10.80;81.70;;;;;;5077499;28;20036;-65
2024/04/02 06:05:12;;;;;;;1.70;0.30;;;10.80;81.70;;;;;;5063852;28;20422;-61
2024/04/02 06:07:38;;;;;;;3.08;0.90;;;10.80;81.80;;;;;;5073699;28;20103;-62
2024/04/02 06:10:03;;;;;;;0.98;0.68;;;10.80;81.90;;;;;;5069875;28;20602;-62
2024/04/02 06:12:29;;;;;;;1.40;0.65;;;10.80;81.80;;;;;;5066267;28;20040;-62
2024/04/02 06:14:55;;;;;;;3.22;0.65;;;10.80;81.80;;;;;;5066606;28;20074;-65
2024/04/02 06:17:21;;;;;;;0.40;0.40;;;10.80;81.70;;;;;;5072125;28;20541;-61
2024/04/02 06:19:47;;;;;;;1.80;0.98;;;10.80;81.80;;;;;;5071978;28;20024;-61
2024/04/02 06:22:12;;;;;;;1.13;0.60;;;10.80;81.80;;;;;;5075853;28;20140;-62
2024/04/02 06:24:38;;;;;;;1.52;0.60;;;10.90;81.80;;;;;;5064438;28;20036;-65
2024/04/02 06:27:04;;;;;;;1.33;1.02;;;10.90;81.70;;;;;;5066280;28;20391;-66
2024/04/02 06:29:30;;;;;;;0.77;0.60;;;11.00;81.60;;;;;;5063239;28;20028;-66
2024/04/02 06:31:56;;;;;;;1.38;0.50;;;10.90;81.70;;;;;;5065858;28;20118;-66
2024/04/02 06:34:21;;;;;;;0.98;0.73;;;11.00;81.80;;;;;;5064171;28;20370;-65
2024/04/02 06:36:47;;;;;;;0.50;0.47;;;11.00;81.70;;;;;;5066963;28;20028;-65
2024/04/02 06:39:13;;;;;;;2.00;0.90;;;11.10;81.70;;;;;;5074411;28;20471;-66
2024/04/02 06:41:38;;;;;;;1.00;0.68;;;11.10;81.60;;;;;;5065370;28;20119;-62
2024/04/02 06:44:04;;;;;;;1.38;1.25;;;11.20;81.70;;;;;;5068830;28;20060;-61
2024/04/02 06:46:30;;;;;;;0.63;0.60;;;11.10;81.70;;;;;;5069490;28;20028;-66
2024/04/02 06:48:58;;;;;;;0.95;0.50;;;11.20;81.80;;;;;;5072023;28;20038;-66
2024/04/02 06:51:24;;;;;;;0.90;0.77;;;11.20;81.80;;;;;;5064975;28;20039;-65
2024/04/02 06:53:50;;;;;;;3.15;1.00;;;11.20;81.70;;;;;;5072664;28;20052;-65
2024/04/02 06:56:16;;;;;;;0.63;0.60;;;11.20;81.70;;;;;;5072818;28;20024;-64
2024/04/02 06:58:42;;;;;;;2.13;0.70;;;11.30;81.70;;;;;;5070277;28;20033;-64
2024/04/02 07:01:08;;;;;;;0.60;0.55;;;11.30;81.60;;;;;;5069240;28;20078;-66
2024/04/02 07:03:34;;;;;;;3.42;1.25;;;11.30;81.50;;;;;;5068455;28;20112;-65
2024/04/02 07:05:59;;;;;;;1.05;0.80;;;11.40;81.60;;;;;;5071604;28;20566;-65
2024/04/02 07:08:25;;;;;;;0.93;0.80;;;11.30;81.80;;;;;;5070490;28;20059;-65
2024/04/02 07:11:03;;;;;;;10.07;1.08;;;11.30;81.90;;;;;;5056899;28;20051;-67
2024/04/02 07:13:39;;;;;;;3.83;1.02;;;11.30;82.10;;;;;;5069279;28;20557;-66
2024/04/02 07:16:05;;;;;;;0.70;0.70;;;11.30;81.90;;;;;;5059198;28;21246;-66
2024/04/02 07:18:37;;;;;;;1.63;0.95;;;11.40;81.80;;;;;;5070202;28;20031;-67
2024/04/02 07:21:05;;;;;;;3.42;0.95;;;11.50;81.70;;;;;;5073937;28;20032;-66
2024/04/02 07:23:33;;;;;;;2.80;1.30;;;11.50;81.70;;;;;;5069774;28;20104;-64
2024/04/02 07:26:00;;;;;;;1.88;0.80;;;11.50;81.70;;;;;;5071079;28;20054;-65
2024/04/02 07:28:26;;;;;;;2.47;0.98;;;11.50;81.60;;;;;;5042163;28;20028;-67
2024/04/02 07:30:52;;;;;;;1.75;0.80;;;11.50;81.50;;;;;;5053060;28;20102;-67
2024/04/02 07:33:18;;;;;;;1.17;0.60;;;11.60;81.60;;;;;;5049842;28;20025;-67
2024/04/02 07:35:43;;;;;;;2.53;1.23;;;11.50;81.40;;;;;;5058577;28;20020;-67
2024/04/02 07:38:10;;;;;;;1.25;0.77;;;11.60;81.60;;;;;;5057167;28;20039;-67
2024/04/02 07:40:36;;;;;;;3.67;1.02;;;11.60;81.60;;;;;;5051850;28;20123;-67
2024/04/02 07:43:03;;;;;;;1.10;0.60;;;11.60;81.50;;;;;;5052434;28;20054;-63
2024/04/02 07:45:29;;;;;;;1.38;0.82;;;11.60;81.40;;;;;;5064460;28;20120;-63
2024/04/02 07:47:54;;;;;;;1.23;0.80;;;11.60;81.30;;;;;;5054308;28;20163;-63
2024/04/02 07:50:20;;;;;;;1.45;0.85;;;11.60;81.20;;;;;;5065536;28;20679;-63
2024/04/02 07:52:46;;;;;;;4.05;1.00;;;11.70;81.30;;;;;;5046057;28;20036;-62
2024/04/02 07:55:12;;;;;;;2.15;1.08;;;11.70;81.30;;;;;;5068324;28;20123;-62
2024/04/02 07:57:37;;;;;;;3.90;0.98;;;11.70;81.20;;;;;;5059252;28;20032;-62
2024/04/02 08:00:03;;;;;;;1.92;1.27;;;11.70;81.00;;;;;;5071244;28;20503;-63
2024/04/02 08:02:29;;;;;;;5.55;1.23;;;11.60;80.90;;;;;;5068024;28;20024;-63
2024/04/02 08:04:55;;;;;;;3.03;1.00;;;11.60;81.20;;;;;;5066805;28;20035;-63
2024/04/02 08:07:21;;;;;;;1.67;1.08;;;11.60;81.80;;;;;;5064472;28;20085;-62
2024/04/02 08:09:47;;;;;;;6.68;0.80;;;11.60;81.20;;;;;;5071686;28;20049;-63
2024/04/02 08:12:13;;;;;;;1.17;0.88;;;11.70;81.10;;;;;;5068939;28;20028;-63
2024/04/02 08:14:39;;;;;;;4.50;1.42;;;11.70;81.00;;;;;;5060972;28;20056;-66
2024/04/02 08:17:05;;;;;;;1.75;1.00;;;11.70;81.00;;;;;;5069940;28;20059;-62
2024/04/02 08:19:30;;;;;;;3.08;1.50;;;11.70;80.90;;;;;;5071560;28;20050;-67
2024/04/02 08:21:56;;;;;;;2.35;1.27;;;11.70;80.80;;;;;;5063580;28;20498;-67
2024/04/02 08:24:24;;;;;;;1.63;1.25;;;11.80;80.80;;;;;;5069337;28;20112;-67
2024/04/02 08:26:50;;;;;;;1.52;0.77;;;11.80;80.60;;;;;;5066473;28;20047;-66
2024/04/02 08:29:15;;;;;;;3.25;0.88;;;11.80;80.50;;;;;;5072053;28;20032;-67
2024/04/02 08:31:41;;;;;;;1.63;1.13;;;11.80;80.30;;;;;;5068961;28;20055;-67
2024/04/02 08:34:07;;;;;;;1.88;1.05;;;11.80;80.30;;;;;;5063630;28;20041;-67
2024/04/02 08:36:32;;;;;;;2.63;1.05;;;11.80;80.30;;;;;;5070682;28;20040;-67
2024/04/02 08:38:58;;;;;;;2.22;0.80;;;11.80;80.20;;;;;;5062636;28;20408;-67
2024/04/02 08:41:26;;;;;;;3.25;1.13;;;11.80;80.30;;;;;;5060849;28;20158;-67
2024/04/02 08:43:57;;;;;;;2.65;0.95;;;11.80;80.20;;;;;;5064922;28;20125;-66
2024/04/02 08:46:26;;;;;;;4.72;1.17;;;11.90;80.30;;;;;;5067938;28;20487;-66
2024/04/02 08:48:56;;;;;;;5.95;0.98;;;11.90;80.80;;;;;;5069114;28;20123;-68
2024/04/02 08:51:22;;;;;;;1.65;1.50;;;11.90;80.10;;;;;;5065800;28;20032;-66
2024/04/02 08:53:48;;;;;;;3.70;1.33;;;12.00;80.00;;;;;;5050414;28;20035;-67
2024/04/02 08:56:17;;;;;;;1.75;0.95;;;12.10;80.00;;;;;;5059255;28;20021;-67
2024/04/02 08:58:45;;;;;;;1.85;0.88;;;12.10;79.80;;;;;;5066857;28;20028;-67
2024/04/02 09:01:14;;;;;;;1.30;1.08;;;12.20;79.30;;;;;;5065274;28;20025;-63
2024/04/02 09:03:41;;;;;;;1.35;0.85;;;12.20;79.30;;;;;;5062747;28;20037;-63
2024/04/02 09:06:07;;;;;;;2.53;1.27;;;12.20;79.20;;;;;;5064775;28;20039;-63
2024/04/02 09:08:46;;;;;;;0.82;0.60;;;12.20;79.10;;;;;;5065333;28;20040;-62
2024/04/02 09:11:12;;;;;;;0.68;0.68;;;12.30;79.10;;;;;;5059565;28;20403;-67
2024/04/02 09:13:39;;;;;;;1.20;0.80;;;12.30;78.90;;;;;;5068034;28;20024;-67
2024/04/02 09:16:05;;;;;;;7.10;1.65;;;12.30;78.90;;;;;;5062553;28;20517;-63
2024/04/02 09:18:35;;;;;;;5.97;1.00;;;12.40;78.80;;;;;;5058446;28;20021;-63
2024/04/02 09:21:01;;;;;;;4.38;1.50;;;12.30;78.20;;;;;;5067259;28;20493;-63
2024/04/02 09:23:27;;;;;;;1.10;0.63;;;12.30;78.30;;;;;;5060010;28;20053;-63
2024/04/02 09:25:54;;;;;;;4.13;0.85;;;12.30;78.20;;;;;;5060142;28;20074;-63
2024/04/02 09:28:19;;;;;;;1.05;0.95;;;12.30;78.40;;;;;;5064195;28;20530;-63
2024/04/02 09:30:45;;;;;;;1.10;0.85;;;12.40;78.20;;;;;;5058004;28;20115;-63
2024/04/02 09:33:11;;;;;;;3.72;0.85;;;12.50;77.90;;;;;;5061718;28;20451;-63
2024/04/02 09:36:04;;;;;;;0.50;0.50;;;12.50;77.80;;;;;;5073223;28;20070;-62
2024/04/02 09:38:34;;;;;;;5.10;1.23;;;12.60;77.90;;;;;;5064639;28;20503;-63
2024/04/02 09:41:01;;;;;;;4.50;1.23;;;12.70;77.40;;;;;;5068099;28;20035;-63
2024/04/02 09:43:30;;;;;;;4.25;1.42;;;12.70;77.30;;;;;;5062610;28;20097;-62
2024/04/02 09:45:59;;;;;;;1.73;1.10;;;12.80;77.20;;;;;;5065450;28;20032;-63
2024/04/02 09:48:28;;;;;;;1.67;0.60;;;12.80;77.00;;;;;;5066399;28;20025;-63
2024/04/02 09:50:55;;;;;;;1.58;1.05;;;12.90;77.00;;;;;;5068600;28;20024;-63
2024/04/02 09:53:22;;;;;;;3.83;0.95;;;12.90;76.70;;;;;;5064478;28;20025;-63
2024/04/02 09:55:48;;;;;;;3.65;0.93;;;12.90;76.40;;;;;;5062266;28;20206;-63
2024/04/02 09:58:15;;;;;;;3.38;1.48;;;12.90;76.40;;;;;;5067687;28;20036;-63
2024/04/02 10:00:46;;;;;;;1.73;0.70;;;13.00;76.80;;;;;;5049348;28;20495;-67
2024/04/02 10:03:13;;;;;;;2.47;1.02;;;13.20;75.90;;;;;;5066641;28;20087;-67
2024/04/02 10:05:39;;;;;;;1.23;0.55;;;13.50;75.60;;;;;;5068163;28;20113;-67
2024/04/02 10:08:07;;;;;;;1.75;0.55;;;13.70;75.00;;;;;;5070241;28;20456;-67
2024/04/02 10:10:39;;;;;;;1.30;0.70;;;13.80;74.40;;;;;;5065308;28;20494;-67
2024/04/02 10:13:08;;;;;;;5.03;1.08;;;13.90;73.70;;;;;;5063247;28;20384;-67
2024/04/02 10:15:34;;;;;;;1.70;0.70;;;13.90;73.60;;;;;;5066758;28;20398;-67
2024/04/02 10:18:01;;;;;;;4.18;1.17;;;13.90;73.50;;;;;;5060506;28;20032;-67
2024/04/02 10:20:32;;;;;;;2.58;0.80;;;14.10;73.20;;;;;;5069641;28;20115;-67
2024/04/02 10:23:02;;;;;;;2.03;0.70;;;14.20;72.80;;;;;;5068897;28;20028;-67
2024/04/02 10:25:31;;;;;;;2.72;0.70;;;14.40;72.30;;;;;;5068013;28;20016;-67
2024/04/02 10:28:03;;;;;;;2.88;0.80;;;14.50;71.80;;;;;;5070388;28;20029;-63
2024/04/02 10:30:29;;;;;;;2.53;1.15;;;14.50;71.80;;;;;;5065885;28;20064;-63
2024/04/02 10:32:55;;;;;;;2.28;1.05;;;14.40;71.40;;;;;;5063637;28;20102;-63
2024/04/02 10:35:26;;;;;;;3.40;0.93;;;14.20;71.20;;;;;;5069248;28;20040;-63
2024/04/02 10:37:55;;;;;;;4.28;0.75;;;14.10;71.50;;;;;;5066227;28;20407;-67
2024/04/02 10:40:21;;;;;;;2.20;0.57;;;13.90;71.30;;;;;;5066221;28;20024;-63
2024/04/02 10:42:48;;;;;;;1.42;0.50;;;13.80;72.00;;;;;;5072485;28;20570;-67
2024/04/02 10:45:15;;;;;;;0.70;0.50;;;13.70;72.40;;;;;;5065083;28;20025;-63
2024/04/02 10:47:53;;;;;;;0.40;0.40;;;13.60;72.90;;;;;;5055574;28;20352;-67
2024/04/02 10:50:21;;;;;;;4.40;0.70;;;13.50;74.60;;;;;;5068340;28;20043;-63
2024/04/02 10:52:47;;;;;;;0.50;0.43;;;13.50;75.10;;;;;;5077673;28;20067;-63
2024/04/02 10:55:12;;;;;;;0.38;0.30;;;13.40;75.80;;;;;;5074824;28;20052;-67
2024/04/02 10:57:39;;;;;;;4.38;0.60;;;13.40;76.30;;;;;;5080927;28;20067;-66
2024/04/02 11:00:10;;;;;;;1.15;0.45;;;13.40;76.50;;;;;;5070850;28;20028;-67
2024/04/02 11:02:37;;;;;;;3.80;0.63;;;13.50;76.80;;;;;;5072323;28;20025;-62
2024/04/02 11:05:07;;;;;;;1.15;0.80;;;13.50;77.20;;;;;;5077449;28;20086;-63
2024/04/02 11:07:33;;;;;;;1.88;0.77;;;13.40;77.50;;;;;;5063550;28;20040;-63
2024/04/02 11:10:00;;;;;;;3.95;0.60;;;13.30;78.00;;;;;;5058222;28;20407;-63
2024/04/02 11:12:29;;;;;;;2.80;0.77;;;13.20;78.50;;;;;;5066938;28;20024;-66
2024/04/02 11:14:56;;;;;;;5.18;0.45;;;13.10;78.80;;;;;;5074339;28;20446;-67
2024/04/02 11:17:22;;;;;;;2.90;1.55;;;13.00;79.20;;;;;;5066313;28;20028;-67
2024/04/02 11:19:51;;;;;;;0.30;0.30;;;13.00;79.60;;;;;;5049900;28;20475;-67
2024/04/02 11:25:13;;;;;;;0.43;0.40;;;13.10;79.80;;;;;;5063156;28;20039;-67
2024/04/02 11:27:45;;;;;;;5.43;0.50;;;13.10;79.90;;;;;;5066920;28;20045;-67
2024/04/02 11:30:14;;;;;;;0.47;0.38;;;13.10;80.20;;;;;;5054129;28;21155;-67
2024/04/02 11:32:40;;;;;;;1.25;0.52;;;13.10;80.30;;;;;;5049700;28;20052;-67
2024/04/02 11:35:10;;;;;;;2.90;0.63;;;13.10;80.40;;;;;;5052852;28;20084;-67
2024/04/02 11:37:36;;;;;;;0.65;0.65;;;13.10;80.60;;;;;;5058340;28;21356;-67
2024/04/02 11:40:03;;;;;;;0.55;0.47;;;13.00;80.90;;;;;;5065850;28;20115;-67
2024/04/02 11:42:32;;;;;;;4.30;0.80;;;13.10;80.90;;;;;;5065997;28;20059;-63
2024/04/02 11:45:00;;;;;;;1.05;0.40;;;13.10;80.90;;;;;;5074530;28;20044;-66
2024/04/02 11:47:26;;;;;;;2.55;0.93;;;13.10;81.00;;;;;;5067475;28;20024;-63
2024/04/02 11:49:52;;;;;;;1.45;0.45;;;13.10;81.10;;;;;;5058507;28;20028;-66
2024/04/02 11:52:18;;;;;;;6.95;0.65;;;13.10;81.20;;;;;;5071606;28;20514;-67
2024/04/02 11:54:44;;;;;;;1.20;0.55;;;13.10;81.40;;;;;;5071222;28;20394;-67
2024/04/02 12:00:10;;;;;;;1.02;0.50;;;12.90;81.80;;;;;;5068586;28;20027;-67
2024/04/02 12:02:43;;;;;;;1.80;0.98;;;12.80;82.10;;;;;;5067805;28;21336;-67
2024/04/02 12:05:10;;;;;;;1.58;0.40;;;12.80;82.40;;;;;;5068299;28;20517;-64
2024/04/02 12:07:36;;;;;;;2.10;0.45;;;12.80;82.60;;;;;;5064917;28;20067;-67
2024/04/02 12:10:04;;;;;;;2.15;0.60;;;12.70;82.70;;;;;;5072246;28;20052;-67
2024/04/02 12:12:30;;;;;;;2.40;0.77;;;12.70;83.00;;;;;;5070290;28;20103;-67
2024/04/02 12:14:56;;;;;;;0.80;0.60;;;12.60;83.30;;;;;;5067831;28;20439;-63
2024/04/02 12:17:23;;;;;;;0.35;0.35;;;12.60;83.60;;;;;;5069773;28;20033;-63
2024/04/02 12:19:55;;;;;;;0.40;0.40;;;12.70;83.60;;;;;;5068075;28;20029;-63
2024/04/02 12:22:25;;;;;;;0.52;0.52;;;12.80;83.40;;;;;;5075506;28;20089;-63
2024/04/02 12:24:51;;;;;;;1.45;0.70;;;13.00;83.30;;;;;;5073705;28;20108;-63
2024/04/02 12:27:19;;;;;;;2.13;0.90;;;13.00;83.10;;;;;;5055007;28;20020;-64
2024/04/02 12:29:45;;;;;;;1.35;0.65;;;13.00;83.10;;;;;;5068906;28;20025;-67
2024/04/02 12:32:11;;;;;;;1.77;0.60;;;13.10;83.00;;;;;;5068579;28;20051;-67
2024/04/02 12:34:41;;;;;;;1.98;0.70;;;13.30;82.50;;;;;;5071568;28;20043;-67
2024/04/02 12:37:07;;;;;;;3.05;0.75;;;13.30;82.20;;;;;;5073219;28;20025;-67
2024/04/02 12:39:36;;;;;;;2.97;0.60;;;13.40;81.80;;;;;;5069085;28;20028;-67
2024/04/02 12:42:03;;;;;;;1.13;1.02;;;13.50;81.40;;;;;;5067711;28;20040;-67
2024/04/02 12:44:30;;;;;;;1.33;0.57;;;13.50;81.20;;;;;;5068763;28;20103;-67
2024/04/02 12:46:57;;;;;;;2.78;1.38;;;13.60;80.70;;;;;;5069964;28;20050;-63
2024/04/02 12:49:23;;;;;;;4.03;1.45;;;13.50;80.10;;;;;;5067623;28;20483;-67
2024/04/02 12:51:51;;;;;;;0.88;0.50;;;13.30;80.20;;;;;;5053484;28;20020;-67